createdAt,value
2019-05-26T00:04:17.079Z,55.20
2019-05-26T00:09:20.907Z,55.20
2019-05-26T00:14:24.629Z,55.00
2019-05-26T00:19:28.298Z,55.10
2019-05-26T00:24:32.184Z,55.00
2019-05-26T00:29:35.944Z,54.80
2019-05-26T00:34:39.730Z,54.70
2019-05-26T00:39:43.416Z,54.90
2019-05-26T00:44:47.084Z,54.70
2019-05-26T00:49:50.788Z,54.60
2019-05-26T00:54:54.545Z,54.60
2019-05-26T00:59:58.198Z,54.60
2019-05-26T01:05:01.882Z,54.60
2019-05-26T01:10:05.941Z,54.60
2019-05-26T01:15:11.239Z,54.50
2019-05-26T01:20:14.969Z,54.60
2019-05-26T01:25:18.635Z,54.60
2019-05-26T01:30:29.219Z,54.40
2019-05-26T01:35:33.050Z,54.30
2019-05-26T01:40:40.300Z,54.40
2019-05-26T01:45:43.989Z,54.40
2019-05-26T01:50:47.791Z,54.40
2019-05-26T01:55:51.624Z,54.40
2019-05-26T02:00:55.362Z,54.40
2019-05-26T02:05:59.117Z,54.40
2019-05-26T02:11:02.835Z,54.50
2019-05-26T02:16:07.728Z,54.60
2019-05-26T02:21:14.831Z,54.40
2019-05-26T02:26:18.134Z,54.40
2019-05-26T02:31:21.871Z,54.70
2019-05-26T02:36:25.576Z,54.50
2019-05-26T02:41:29.310Z,54.40
2019-05-26T02:46:33.031Z,54.40
2019-05-26T02:51:36.679Z,54.40
2019-05-26T02:56:40.386Z,54.40
2019-05-26T03:02:00.968Z,54.30
2019-05-26T03:06:49.429Z,54.30
2019-05-26T03:11:53.219Z,54.50
2019-05-26T03:16:56.899Z,54.40
2019-05-26T03:22:00.594Z,54.40
2019-05-26T03:27:04.333Z,54.40
2019-05-26T03:32:08.279Z,54.40
2019-05-26T03:37:12.015Z,54.30
2019-05-26T03:42:16.051Z,54.20
2019-05-26T03:47:19.836Z,54.20
2019-05-26T03:52:23.536Z,54.40
2019-05-26T03:57:27.609Z,54.20
2019-05-26T04:02:31.353Z,54.20
2019-05-26T04:07:35.085Z,54.20
2019-05-26T04:12:38.802Z,54.00
2019-05-26T04:17:42.628Z,54.10
2019-05-26T04:22:46.363Z,54.20
2019-05-26T04:27:50.333Z,54.20
2019-05-26T04:32:54.029Z,54.10
2019-05-26T04:37:57.840Z,54.20
2019-05-26T04:43:01.544Z,54.00
2019-05-26T04:48:05.421Z,54.00
2019-05-26T04:53:09.112Z,54.00
2019-05-26T04:58:13.102Z,53.90
2019-05-26T05:03:16.805Z,53.90
2019-05-26T05:08:20.442Z,54.00
2019-05-26T05:13:25.077Z,53.80
2019-05-26T05:18:28.858Z,54.40
2019-05-26T05:23:32.582Z,53.90
2019-05-26T05:28:36.451Z,54.00
2019-05-26T05:33:40.541Z,53.60
2019-05-26T05:38:44.246Z,53.70
2019-05-26T05:43:48.002Z,53.70
2019-05-26T05:48:52.132Z,54.30
2019-05-26T05:53:55.777Z,54.30
2019-05-26T05:58:59.495Z,54.30
2019-05-26T06:04:03.193Z,54.80
2019-05-26T06:09:07.254Z,54.70
2019-05-26T06:14:10.875Z,54.70
2019-05-26T06:19:14.625Z,54.70
2019-05-26T06:24:18.310Z,54.60
2019-05-26T06:29:22.048Z,55.10
2019-05-26T06:34:25.753Z,57.60
2019-05-26T06:39:29.587Z,55.20
2019-05-26T06:44:33.239Z,55.20
2019-05-26T06:49:37.081Z,55.40
2019-05-26T06:54:40.827Z,55.70
2019-05-26T06:59:44.673Z,56.90
2019-05-26T07:04:48.384Z,55.70
2019-05-26T07:09:52.183Z,56.00
2019-05-26T07:14:55.845Z,55.80
2019-05-26T07:19:59.552Z,56.00
2019-05-26T07:25:03.261Z,55.60
2019-05-26T07:30:07.176Z,55.50
2019-05-26T07:35:11.228Z,55.60
2019-05-26T07:40:15.234Z,55.50
2019-05-26T07:45:19.366Z,56.70
2019-05-26T07:50:23.451Z,62.50
2019-05-26T07:55:27.827Z,58.20
2019-05-26T08:00:31.626Z,70.40
2019-05-26T08:05:35.366Z,59.50
2019-05-26T08:10:39.011Z,60.70
2019-05-26T08:15:43.757Z,59.40
2019-05-26T08:20:47.514Z,61.60
2019-05-26T08:25:51.362Z,59.30
2019-05-26T08:30:55.149Z,59.20
2019-05-26T08:35:58.941Z,58.80
2019-05-26T08:41:02.780Z,59.80
2019-05-26T08:46:06.825Z,59.10
2019-05-26T08:51:10.591Z,58.10
2019-05-26T08:56:14.410Z,58.80
2019-05-26T09:01:18.187Z,58.70
2019-05-26T09:06:21.935Z,57.90
2019-05-26T09:11:25.988Z,57.80
2019-05-26T09:16:29.852Z,57.50
2019-05-26T09:21:33.646Z,57.60
2019-05-26T09:26:37.534Z,57.40
2019-05-26T09:31:41.226Z,57.40
2019-05-26T09:36:45.006Z,57.40
2019-05-26T09:41:48.867Z,57.90
2019-05-26T09:46:52.635Z,58.30
2019-05-26T09:51:56.380Z,57.90
2019-05-26T09:57:00.362Z,57.90
2019-05-26T10:02:05.006Z,58.00
2019-05-26T10:07:13.322Z,57.80
2019-05-26T10:12:14.523Z,57.80
2019-05-26T10:17:18.421Z,57.60
2019-05-26T10:22:22.231Z,58.10
2019-05-26T10:27:26.186Z,57.50
2019-05-26T10:32:30.112Z,57.60
2019-05-26T10:37:34.137Z,58.50
2019-05-26T10:42:37.881Z,58.60
2019-05-26T10:47:41.742Z,59.00
2019-05-26T10:53:04.892Z,58.60
2019-05-26T10:58:08.735Z,58.20
2019-05-26T11:03:13.962Z,58.20
2019-05-26T11:08:17.807Z,57.90
2019-05-26T11:13:28.649Z,58.20
2019-05-26T11:18:32.553Z,58.10
2019-05-26T11:23:36.301Z,58.20
2019-05-26T11:28:40.191Z,58.10
2019-05-26T11:33:44.106Z,58.30
2019-05-26T11:38:47.918Z,57.80
2019-05-26T11:43:51.838Z,58.10
2019-05-26T11:48:55.708Z,57.70
2019-05-26T11:54:00.234Z,57.70
2019-05-26T11:59:03.965Z,57.50
2019-05-26T12:04:07.795Z,57.40
2019-05-26T12:09:14.058Z,57.50
2019-05-26T12:14:36.439Z,57.20
2019-05-26T12:19:40.159Z,57.30
2019-05-26T12:24:43.885Z,57.30
2019-05-26T12:29:47.887Z,57.30
2019-05-26T12:34:51.638Z,57.40
2019-05-26T12:39:55.332Z,57.30
2019-05-26T12:44:59.323Z,57.10
2019-05-26T12:50:03.188Z,57.20
2019-05-26T12:55:09.319Z,57.10
2019-05-26T13:00:12.741Z,56.90
2019-05-26T13:05:16.468Z,57.30
2019-05-26T13:10:20.313Z,57.20
2019-05-26T13:15:24.212Z,57.10
2019-05-26T13:20:27.991Z,57.00
2019-05-26T13:25:32.540Z,57.50
2019-05-26T13:30:36.199Z,57.00
2019-05-26T13:35:40.060Z,57.10
2019-05-26T13:40:44.910Z,57.00
2019-05-26T13:45:48.697Z,56.90
2019-05-26T13:50:52.526Z,56.80
2019-05-26T13:55:56.460Z,57.10
2019-05-26T14:01:00.283Z,56.90
2019-05-26T14:06:04.246Z,57.20
2019-05-26T14:11:27.483Z,57.10
2019-05-26T14:16:31.374Z,57.00
2019-05-26T14:21:35.113Z,56.70
2019-05-26T14:26:39.055Z,56.40
2019-05-26T14:31:42.831Z,56.60
2019-05-26T14:36:46.533Z,55.20
2019-05-26T14:41:50.271Z,65.10
2019-05-26T14:46:54.020Z,59.70
2019-05-26T14:51:57.750Z,55.50
2019-05-26T14:57:01.401Z,53.90
2019-05-26T15:02:05.340Z,53.40
2019-05-26T15:07:09.099Z,52.80
2019-05-26T15:12:12.988Z,51.80
2019-05-26T15:17:16.715Z,51.20
2019-05-26T15:22:20.441Z,49.30
2019-05-26T15:27:24.137Z,49.60
2019-05-26T15:32:27.930Z,49.40
2019-05-26T15:37:31.759Z,48.20
2019-05-26T15:42:35.656Z,48.10
2019-05-26T15:47:39.539Z,49.70
2019-05-26T15:53:02.662Z,49.00
2019-05-26T15:58:06.372Z,47.90
2019-05-26T16:03:10.248Z,48.40
2019-05-26T16:08:14.187Z,47.80
2019-05-26T16:13:18.144Z,48.40
2019-05-26T16:18:22.028Z,48.30
2019-05-26T16:23:25.788Z,48.10
2019-05-26T16:28:30.030Z,48.00
2019-05-26T16:33:33.767Z,48.70
2019-05-26T16:38:37.696Z,48.40
2019-05-26T16:43:41.482Z,48.30
2019-05-26T16:48:45.337Z,48.50
2019-05-26T16:53:49.124Z,48.50
2019-05-26T16:58:52.962Z,48.10
2019-05-26T17:03:56.744Z,47.80
2019-05-26T17:09:00.541Z,50.40
2019-05-26T17:14:04.393Z,51.30
2019-05-26T17:19:08.102Z,51.70
2019-05-26T17:24:11.878Z,50.60
2019-05-26T17:29:15.652Z,51.10
2019-05-26T17:34:19.629Z,49.40
2019-05-26T17:39:23.415Z,51.00
2019-05-26T17:44:27.259Z,49.70
2019-05-26T17:49:31.075Z,49.30
2019-05-26T17:54:34.880Z,49.20
2019-05-26T17:59:38.884Z,49.50
2019-05-26T18:04:42.687Z,49.50
2019-05-26T18:09:46.429Z,49.60
2019-05-26T18:14:50.322Z,49.70
2019-05-26T18:19:54.113Z,49.80
2019-05-26T18:24:59.056Z,49.70
2019-05-26T18:30:03.153Z,49.70
2019-05-26T18:35:07.000Z,49.60
2019-05-26T18:40:11.025Z,49.70
2019-05-26T18:45:14.935Z,49.60
2019-05-26T18:50:18.716Z,49.60
2019-05-26T18:55:22.477Z,49.70
2019-05-26T19:00:30.832Z,49.70
2019-05-26T19:05:34.780Z,49.50
2019-05-26T19:10:37.523Z,50.80
2019-05-26T19:15:41.304Z,51.30
2019-05-26T19:20:45.274Z,52.60
2019-05-26T19:25:49.325Z,52.50
2019-05-26T19:30:53.077Z,52.80
2019-05-26T19:35:56.843Z,52.90
2019-05-26T19:41:00.801Z,52.80
2019-05-26T19:46:38.717Z,53.20
2019-05-26T19:51:10.801Z,53.30
2019-05-26T19:56:14.712Z,53.30
2019-05-26T20:01:18.557Z,53.40
2019-05-26T20:06:22.477Z,53.60
2019-05-26T20:11:26.519Z,53.80
2019-05-26T20:16:30.980Z,53.80
2019-05-26T20:21:34.894Z,54.40
2019-05-26T20:26:38.793Z,53.90
2019-05-26T20:31:42.602Z,54.50
2019-05-26T20:36:46.400Z,54.20
2019-05-26T20:41:50.272Z,54.50
2019-05-26T20:46:54.091Z,54.20
2019-05-26T20:51:57.897Z,54.70
2019-05-26T20:57:01.786Z,55.20
2019-05-26T21:02:05.580Z,55.00
2019-05-26T21:07:09.350Z,55.10
2019-05-26T21:12:13.292Z,54.60
2019-05-26T21:17:17.006Z,54.90
2019-05-26T21:22:20.862Z,55.00
2019-05-26T21:27:24.828Z,55.20
2019-05-26T21:32:31.264Z,55.00
2019-05-26T21:37:34.040Z,55.00
2019-05-26T21:42:37.757Z,55.30
2019-05-26T21:47:41.471Z,55.20
2019-05-26T21:52:45.486Z,55.10
2019-05-26T21:57:49.252Z,55.10
2019-05-26T22:02:52.950Z,55.40
2019-05-26T22:07:56.738Z,55.20
2019-05-26T22:13:00.492Z,56.10
2019-05-26T22:18:04.219Z,55.80
2019-05-26T22:23:07.983Z,54.40
2019-05-26T22:28:11.709Z,54.10
2019-05-26T22:33:15.435Z,54.10
2019-05-26T22:38:19.108Z,57.30
2019-05-26T22:43:22.833Z,57.50
2019-05-26T22:48:26.518Z,58.90
2019-05-26T22:53:30.179Z,59.20
2019-05-26T22:58:34.139Z,58.00
2019-05-26T23:03:37.952Z,58.10
2019-05-26T23:08:41.754Z,57.10
2019-05-26T23:13:45.462Z,55.80
2019-05-26T23:18:49.184Z,57.60
2019-05-26T23:23:52.890Z,56.80
2019-05-26T23:28:56.593Z,56.80
2019-05-26T23:34:00.213Z,56.00
2019-05-26T23:39:04.329Z,55.60
2019-05-26T23:44:07.995Z,55.70
2019-05-26T23:49:11.636Z,55.10
2019-05-26T23:54:15.262Z,53.60
2019-05-26T23:59:18.976Z,53.40
